SAST,Max TemperatureF,Mean TemperatureF,Min TemperatureF,Max Dew PointF,MeanDew PointF,Min DewpointF,Max Humidity, Mean Humidity, Min Humidity, Max Sea Level PressureIn, Mean Sea Level PressureIn, Min Sea Level PressureIn, Max VisibilityMiles, Mean VisibilityMiles, Min VisibilityMiles, Max Wind SpeedMPH, Mean Wind SpeedMPH, Max Gust SpeedMPH,PrecipitationIn, CloudCover, Events, WindDirDegrees
2013-6-1,67,56,46,48,42,37,82,60,31,29.74,29.69,29.65,19,11,6,29,10,,0.00,4,,287
2013-6-2,59,54,48,43,38,32,76,52,32,29.80,29.66,29.56,19,8,6,23,18,36,0.01,4,Rain,317
2013-6-3,62,54,47,43,37,32,71,49,31,30.11,30.00,29.83,12,8,6,31,21,40,0.00,4,Rain,288
2013-6-4,63,56,50,45,41,37,67,52,35,30.21,30.12,30.06,12,8,6,92,18,39,0.00,5,,286
2013-6-5,64,56,48,50,47,43,88,71,42,30.41,30.33,30.21,12,8,6,18,13,,0.00,4,,283
2013-6-6,64,52,41,48,44,39,93,75,42,30.38,30.26,30.15,12,10,6,7,4,,0.00,1,,324
2013-6-7,62,52,43,50,47,40,94,79,53,30.17,30.03,29.86,19,12,6,9,5,,0.00,1,,298
2013-6-8,61,56,50,52,46,36,94,70,38,30.18,29.89,29.74,12,7,3,28,14,,0.28,6,Rain,275
2013-6-9,57,50,42,46,41,37,93,72,39,30.49,30.39,30.21,12,8,6,13,6,,0.00,5,Rain,298
2013-6-10,64,51,38,43,38,34,87,61,30,30.47,30.33,30.18,12,12,12,7,4,,0.00,,,35
2013-6-11,78,60,41,37,33,28,71,35,11,30.19,30.08,30.01,12,12,12,14,5,,0.00,,,328
2013-6-12,80,65,46,54,41,36,88,44,15,30.01,29.91,29.80,12,10,6,16,6,,0.00,1,,327
2013-6-13,63,54,45,52,46,37,87,66,42,30.01,29.94,29.86,12,8,6,16,8,,0.00,4,Rain,281
2013-6-14,66,58,51,52,44,37,94,62,30,30.18,29.99,29.92,12,8,3,23,12,31,0.08,4,Rain,300
2013-6-15,59,54,48,49,44,40,87,66,48,30.44,30.34,30.18,12,8,6,21,14,,0.00,5,,282
2013-6-16,64,52,40,49,44,39,93,76,46,30.45,30.42,30.39,12,12,12,10,4,,0.00,,,312
2013-6-17,65,53,41,54,45,37,88,74,44,30.46,30.35,30.15,12,12,12,10,4,,0.00,,,51
2013-6-18,80,62,45,41,35,28,35,23,13,30.12,29.91,29.73,12,12,12,31,13,44,0.00,,,333
2013-6-19,62,56,49,52,48,37,88,72,48,30.13,30.03,29.86,12,8,6,16,7,,0.00,4,,258
2013-6-20,62,54,46,50,46,43,93,76,47,30.17,30.14,30.09,12,8,6,10,4,,0.00,3,,3
2013-6-21,81,62,42,46,40,27,93,49,7,30.12,29.92,29.77,12,10,6,30,8,,0.00,3,,305
2013-6-22,60,55,50,46,44,42,82,65,45,30.35,30.25,30.15,12,8,6,16,10,,0.00,5,,260
2013-6-23,75,60,44,52,46,39,94,69,21,30.15,29.99,29.92,12,11,6,12,7,,0.00,,,82
2013-6-24,79,62,46,50,40,28,94,43,10,29.89,29.75,29.65,19,13,6,15,5,,0.00,,,268
2013-6-25,66,59,51,50,44,39,72,55,36,29.92,29.78,29.71,19,9,6,17,7,,0.00,3,Rain,281
2013-6-26,64,54,45,45,38,36,72,53,27,30.15,30.03,29.95,12,8,6,22,10,,0.12,2,Rain,292
2013-6-27,58,54,46,52,48,45,94,81,65,30.35,30.26,30.15,12,7,5,18,11,,0.03,5,Rain,106
2013-6-28,64,52,39,45,41,35,93,73,35,30.33,30.17,30.04,19,12,6,7,3,,0.00,1,,34
2013-6-29,63,52,41,50,45,39,93,77,49,30.07,30.03,30.01,19,13,6,9,4,,0.00,1,,313
2013-6-30,61,52,42,49,45,42,93,77,48,30.19,30.11,30.06,19,11,6,8,5,,0.00,3,,311